createdAt,value
2022-12-04T00:03:31.817Z,67.83
2022-12-04T00:08:23.337Z,68.09
2022-12-04T00:13:14.900Z,67.42
2022-12-04T00:18:06.423Z,67.61
2022-12-04T00:22:58.885Z,67.09
2022-12-04T00:27:50.520Z,67.56
2022-12-04T00:32:42.091Z,67.38
2022-12-04T00:37:34.167Z,67.36
2022-12-04T00:42:25.758Z,67.55
2022-12-04T00:47:17.338Z,67.52
2022-12-04T00:52:08.965Z,68.42
2022-12-04T00:57:00.467Z,68.41
2022-12-04T01:01:52.469Z,68.23
2022-12-04T01:06:44.111Z,68.49
2022-12-04T01:11:35.738Z,68.50
2022-12-04T01:16:33.870Z,68.43
2022-12-04T01:21:25.844Z,68.77
2022-12-04T01:26:17.603Z,68.56
2022-12-04T01:31:13.189Z,68.49
2022-12-04T01:36:07.772Z,67.91
2022-12-04T01:40:59.855Z,67.98
2022-12-04T01:45:56.620Z,68.17
2022-12-04T01:50:52.072Z,67.04
2022-12-04T01:55:45.347Z,67.47
2022-12-04T02:00:36.975Z,66.79
2022-12-04T02:05:28.533Z,67.16
2022-12-04T02:10:25.028Z,66.95
2022-12-04T02:15:24.418Z,67.14
2022-12-04T02:20:23.174Z,67.15
2022-12-04T02:25:23.972Z,66.91
2022-12-04T02:30:15.688Z,66.48
2022-12-04T02:35:33.360Z,66.20
2022-12-04T02:40:29.327Z,66.84
2022-12-04T02:45:26.274Z,66.41
2022-12-04T02:50:22.154Z,66.57
2022-12-04T02:55:24.508Z,66.56
2022-12-04T03:00:17.407Z,65.91
2022-12-04T03:05:20.121Z,66.03
2022-12-04T03:10:27.161Z,66.09
2022-12-04T03:15:31.212Z,66.48
2022-12-04T03:20:25.576Z,66.54
2022-12-04T03:25:17.588Z,67.03
2022-12-04T03:30:36.654Z,66.12
2022-12-04T03:35:36.625Z,66.50
2022-12-04T03:40:57.846Z,66.40
2022-12-04T03:45:59.618Z,67.23
2022-12-04T03:51:07.840Z,66.88
2022-12-04T03:56:10.836Z,67.45
2022-12-04T04:01:07.390Z,67.17
2022-12-04T04:06:06.043Z,68.12
2022-12-04T04:11:35.916Z,68.25
2022-12-04T04:17:03.393Z,68.10
2022-12-04T04:22:15.946Z,67.45
2022-12-04T04:27:07.595Z,68.17
2022-12-04T04:32:22.276Z,68.26
2022-12-04T04:37:20.509Z,67.77
2022-12-04T04:42:26.617Z,68.22
2022-12-04T04:47:33.423Z,68.10
2022-12-04T04:52:25.253Z,68.09
2022-12-04T04:57:32.052Z,67.72
2022-12-04T05:02:26.480Z,68.25
2022-12-04T05:07:18.894Z,68.46
2022-12-04T05:12:10.485Z,68.52
2022-12-04T05:17:07.878Z,68.07
2022-12-04T05:22:03.884Z,68.52
2022-12-04T05:26:55.385Z,68.32
2022-12-04T05:31:47.046Z,68.43
2022-12-04T05:36:38.684Z,68.44
2022-12-04T05:41:30.195Z,68.29
2022-12-04T05:46:21.810Z,67.81
2022-12-04T05:51:13.657Z,68.10
2022-12-04T05:56:07.338Z,67.21
2022-12-04T06:00:58.873Z,67.47
2022-12-04T06:05:50.405Z,67.91
2022-12-04T06:10:42.638Z,67.60
2022-12-04T06:15:39.225Z,67.05
2022-12-04T06:20:30.958Z,66.84
2022-12-04T06:25:22.540Z,66.59
2022-12-04T06:30:14.342Z,66.69
2022-12-04T06:35:07.047Z,66.99
2022-12-04T06:39:58.836Z,66.95
2022-12-04T06:44:50.563Z,67.25
2022-12-04T06:49:42.367Z,67.29
2022-12-04T06:54:34.005Z,67.73
2022-12-04T06:59:25.651Z,67.70
2022-12-04T07:04:17.245Z,67.42
2022-12-04T07:09:17.425Z,67.51
2022-12-04T07:14:09.211Z,66.63
2022-12-04T07:19:00.887Z,66.74
2022-12-04T07:23:55.014Z,67.87
2022-12-04T07:28:47.030Z,67.47
2022-12-04T07:33:39.158Z,68.19
2022-12-04T07:38:31.912Z,67.99
2022-12-04T07:43:24.162Z,68.06
2022-12-04T07:48:15.799Z,67.42
2022-12-04T07:53:07.355Z,67.06
2022-12-04T07:57:59.746Z,67.28
2022-12-04T08:02:51.356Z,68.05
2022-12-04T08:07:42.949Z,67.71
2022-12-04T08:12:34.670Z,67.73
2022-12-04T08:17:26.541Z,68.03
2022-12-04T08:22:23.409Z,68.44
2022-12-04T08:27:16.901Z,67.84
2022-12-04T08:32:08.679Z,68.33
2022-12-04T08:37:00.301Z,68.99
2022-12-04T08:41:56.819Z,70.31
2022-12-04T08:46:48.882Z,69.37
2022-12-04T08:51:40.550Z,69.58
2022-12-04T08:56:33.083Z,69.24
2022-12-04T09:01:26.027Z,68.63
2022-12-04T09:06:18.696Z,69.00
2022-12-04T09:11:15.939Z,69.11
2022-12-04T09:16:10.507Z,69.73
2022-12-04T09:21:05.357Z,69.76
2022-12-04T09:25:57.242Z,69.87
2022-12-04T09:31:06.985Z,69.28
2022-12-04T09:36:00.001Z,69.18
2022-12-04T09:41:05.093Z,69.65
2022-12-04T09:46:02.495Z,69.84
2022-12-04T09:50:55.917Z,69.44
2022-12-04T09:55:54.705Z,69.78
2022-12-04T10:00:49.724Z,69.97
2022-12-04T10:05:54.509Z,69.01
2022-12-04T10:11:12.244Z,68.26
2022-12-04T10:16:14.878Z,68.63
2022-12-04T10:21:15.577Z,68.13
2022-12-04T10:26:18.263Z,67.07
2022-12-04T10:31:14.888Z,67.41
2022-12-04T10:36:10.830Z,67.97
2022-12-04T10:41:17.942Z,68.11
2022-12-04T10:46:21.189Z,67.92
2022-12-04T10:51:16.567Z,68.04
2022-12-04T10:56:10.598Z,67.68
2022-12-04T11:01:06.021Z,68.72
2022-12-04T11:06:09.443Z,68.21
2022-12-04T11:11:08.189Z,68.13
2022-12-04T11:16:00.246Z,67.73
2022-12-04T11:21:04.960Z,66.14
2022-12-04T11:26:05.512Z,66.11
2022-12-04T11:31:02.130Z,66.63
2022-12-04T11:35:56.830Z,66.42
2022-12-04T11:40:54.807Z,66.50
2022-12-04T11:46:06.675Z,66.24
2022-12-04T11:51:16.422Z,66.49
2022-12-04T11:56:15.968Z,68.16
2022-12-04T12:01:40.583Z,67.59
2022-12-04T12:06:37.600Z,67.92
2022-12-04T12:11:49.731Z,67.79
2022-12-04T12:16:56.407Z,67.57
2022-12-04T12:21:50.885Z,68.06
2022-12-04T12:26:55.261Z,67.67
2022-12-04T12:31:56.008Z,67.49
2022-12-04T12:36:50.557Z,67.08
2022-12-04T12:41:48.626Z,67.14
2022-12-04T12:47:09.686Z,66.65
2022-12-04T12:52:17.322Z,65.35
2022-12-04T12:57:36.660Z,66.03
2022-12-04T13:02:28.407Z,66.07
2022-12-04T13:07:37.665Z,66.73
2022-12-04T13:12:31.791Z,67.38
2022-12-04T13:17:39.165Z,67.27
2022-12-04T13:22:57.154Z,66.94
2022-12-04T13:28:00.967Z,66.49
2022-12-04T13:33:19.831Z,66.76
2022-12-04T13:38:26.697Z,66.85
2022-12-04T13:43:41.927Z,66.88
2022-12-04T13:48:40.122Z,67.25
2022-12-04T13:53:37.684Z,66.69
2022-12-04T13:58:32.492Z,66.87
2022-12-04T14:03:28.460Z,67.80
2022-12-04T14:08:20.056Z,67.41
2022-12-04T14:13:23.612Z,67.03
2022-12-04T14:18:29.494Z,67.38
2022-12-04T14:23:26.517Z,67.66
2022-12-04T14:28:42.214Z,67.84
2022-12-04T14:33:39.631Z,68.12
2022-12-04T14:38:32.982Z,67.83
2022-12-04T14:43:27.346Z,67.90
2022-12-04T14:48:38.856Z,68.22
2022-12-04T14:53:41.722Z,67.94
2022-12-04T14:58:36.879Z,68.76
2022-12-04T15:03:31.650Z,67.87
2022-12-04T15:08:23.361Z,68.08
2022-12-04T15:13:37.997Z,67.80
2022-12-04T15:18:29.613Z,67.56
2022-12-04T15:23:27.881Z,67.74
2022-12-04T15:28:29.001Z,68.15
2022-12-04T15:33:25.434Z,68.13
2022-12-04T15:38:18.788Z,67.63
2022-12-04T15:43:16.998Z,68.34
2022-12-04T15:48:08.730Z,67.96
2022-12-04T15:53:18.190Z,67.44
2022-12-04T15:58:40.130Z,68.19
2022-12-04T16:03:37.461Z,67.50
2022-12-04T16:08:31.993Z,67.39
2022-12-04T16:13:29.492Z,68.02
2022-12-04T16:18:21.093Z,67.51
2022-12-04T16:23:13.846Z,67.60
2022-12-04T16:28:05.425Z,67.30
2022-12-04T16:32:57.051Z,67.82
2022-12-04T16:37:48.805Z,67.85
2022-12-04T16:42:42.035Z,68.01
2022-12-04T16:47:33.721Z,67.36
2022-12-04T16:52:25.593Z,67.79
2022-12-04T16:57:18.187Z,67.97
2022-12-04T17:02:25.444Z,67.14
2022-12-04T17:07:17.086Z,67.14
2022-12-04T17:12:09.768Z,67.60
2022-12-04T17:17:01.416Z,67.54
2022-12-04T17:21:53.147Z,68.48
2022-12-04T17:26:44.844Z,68.19
2022-12-04T17:31:37.352Z,68.82
2022-12-04T17:36:29.059Z,69.81
2022-12-04T17:41:22.469Z,69.93
2022-12-04T17:46:17.299Z,69.94
2022-12-04T17:51:11.772Z,70.77
2022-12-04T17:56:06.224Z,70.37
2022-12-04T18:01:20.309Z,70.99
2022-12-04T18:06:20.506Z,70.98
2022-12-04T18:11:12.601Z,71.38
2022-12-04T18:16:12.072Z,71.83
2022-12-04T18:21:10.272Z,71.52
2022-12-04T18:26:02.244Z,71.64
2022-12-04T18:30:53.966Z,71.95
2022-12-04T18:35:55.113Z,71.39
2022-12-04T18:40:46.733Z,71.66
2022-12-04T18:45:39.639Z,72.13
2022-12-04T18:50:31.336Z,71.57
2022-12-04T18:55:23.457Z,71.41
2022-12-04T19:00:15.541Z,70.97
2022-12-04T19:05:09.228Z,70.94
2022-12-04T19:10:16.347Z,70.86
2022-12-04T19:15:08.266Z,71.74
2022-12-04T19:20:00.236Z,71.97
2022-12-04T19:24:51.928Z,71.45
2022-12-04T19:29:45.453Z,71.38
2022-12-04T19:34:37.975Z,71.52
2022-12-04T19:39:29.630Z,71.41
2022-12-04T19:49:35.274Z,70.96
2022-12-04T19:54:28.088Z,71.03
2022-12-04T19:59:20.552Z,70.82
2022-12-04T20:04:13.067Z,70.67
2022-12-04T20:09:09.659Z,71.23
2022-12-04T20:14:02.252Z,71.92
2022-12-04T20:18:54.235Z,71.35
2022-12-04T20:23:51.175Z,71.39
2022-12-04T20:28:44.002Z,71.40
2022-12-04T20:33:35.623Z,72.67
2022-12-04T20:38:28.011Z,72.87
2022-12-04T20:43:20.368Z,72.80
2022-12-04T20:48:12.435Z,73.99
2022-12-04T20:53:03.990Z,75.26
2022-12-04T20:57:57.289Z,74.55
2022-12-04T21:02:49.401Z,75.30
2022-12-04T21:07:41.106Z,75.31
2022-12-04T21:12:53.086Z,75.54
2022-12-04T21:17:44.731Z,75.68
2022-12-04T21:22:37.092Z,76.73
2022-12-04T21:27:29.549Z,77.35
2022-12-04T21:32:21.742Z,77.61
2022-12-04T21:37:13.293Z,78.05
